Time;durP1;ratioP1;P1;durP2;ratioP2;P2;SDS_P1;SDS_P2;PMS_P1;PMS_P2;Temp;Humidity;BMP_temperature;BMP_pressure;BME280_temperature;BME280_humidity;BME280_pressure;Samples;Min_cycle;Max_cycle;Signal;HPM_P1;HPM_P2
2023/10/31 00:01:41;;;;;;;22.43;7.97;;;10.90;99.90;;;;;;4995988;28;20046;-82
2023/10/31 00:04:07;;;;;;;21.80;7.53;;;10.90;99.90;;;;;;4994898;28;20093;-82
2023/10/31 00:06:32;;;;;;;25.97;8.10;;;10.90;99.90;;;;;;4995134;28;20052;-82
2023/10/31 00:08:58;;;;;;;35.63;8.93;;;10.90;99.90;;;;;;4995041;28;20097;-82
2023/10/31 00:11:24;;;;;;;32.17;10.10;;;10.90;99.90;;;;;;4994069;28;20073;-81
2023/10/31 00:13:49;;;;;;;23.43;7.40;;;11.00;99.90;;;;;;4995735;28;20046;-82
2023/10/31 00:16:15;;;;;;;18.53;6.10;;;10.90;99.90;;;;;;4993786;28;20046;-82
2023/10/31 00:18:41;;;;;;;42.63;9.03;;;10.90;99.90;;;;;;4993966;28;20082;-82
2023/10/31 00:21:06;;;;;;;19.90;6.20;;;10.90;99.90;;;;;;4994836;28;20482;-81
2023/10/31 00:23:32;;;;;;;19.57;5.53;;;10.80;99.90;;;;;;4994874;28;20050;-81
2023/10/31 00:25:58;;;;;;;32.27;7.27;;;10.90;99.90;;;;;;4994780;28;20065;-82
2023/10/31 00:28:23;;;;;;;30.87;8.30;;;10.90;99.90;;;;;;4994464;28;20082;-82
2023/10/31 00:30:49;;;;;;;29.03;8.03;;;10.90;99.90;;;;;;4994962;28;20051;-82
2023/10/31 00:33:15;;;;;;;21.17;8.37;;;10.90;99.90;;;;;;4994682;28;20438;-82
2023/10/31 00:35:40;;;;;;;29.60;8.73;;;10.90;99.90;;;;;;4994398;28;20053;-83
2023/10/31 00:38:06;;;;;;;29.07;9.63;;;10.90;99.90;;;;;;4995041;28;20058;-83
2023/10/31 00:40:32;;;;;;;25.33;7.37;;;10.90;99.90;;;;;;4993591;28;20058;-83
2023/10/31 00:42:58;;;;;;;26.67;7.03;;;10.90;99.90;;;;;;4993170;28;20352;-82
2023/10/31 00:45:24;;;;;;;31.47;9.20;;;10.90;99.90;;;;;;4994654;28;20494;-82
2023/10/31 00:47:50;;;;;;;19.10;5.90;;;10.90;99.90;;;;;;4993449;28;20404;-82
2023/10/31 00:50:16;;;;;;;23.50;6.87;;;10.80;99.90;;;;;;4994664;28;20067;-82
2023/10/31 00:52:41;;;;;;;24.07;5.90;;;10.90;99.90;;;;;;4993359;28;20129;-82
2023/10/31 00:55:07;;;;;;;20.53;4.57;;;10.80;99.90;;;;;;4993503;28;20390;-83
2023/10/31 00:57:33;;;;;;;17.97;4.83;;;10.80;99.90;;;;;;4993227;28;20112;-82
2023/10/31 00:59:58;;;;;;;16.97;4.53;;;10.80;99.90;;;;;;4994181;28;20480;-82
2023/10/31 01:02:24;;;;;;;21.43;4.10;;;10.80;99.90;;;;;;4993087;28;20133;-81
2023/10/31 01:04:50;;;;;;;16.60;4.43;;;10.80;99.90;;;;;;4994039;28;20101;-82
2023/10/31 01:07:17;;;;;;;20.70;4.87;;;10.80;99.90;;;;;;4994467;28;20050;-81
2023/10/31 01:09:44;;;;;;;18.37;5.07;;;10.80;99.90;;;;;;4993221;28;20058;-80
2023/10/31 01:12:11;;;;;;;15.83;4.63;;;10.80;99.90;;;;;;4994648;28;20725;-81
2023/10/31 01:14:36;;;;;;;18.30;4.90;;;10.70;99.90;;;;;;4992876;28;20293;-81
2023/10/31 01:17:02;;;;;;;16.97;4.60;;;10.80;99.90;;;;;;4994823;28;20277;-81
2023/10/31 01:19:28;;;;;;;27.17;6.50;;;10.80;99.90;;;;;;4994868;28;20565;-81
2023/10/31 01:21:53;;;;;;;24.03;6.00;;;10.80;99.90;;;;;;4994331;28;20509;-80
2023/10/31 01:24:19;;;;;;;21.90;5.97;;;10.80;99.90;;;;;;4993764;28;20054;-80
2023/10/31 01:26:45;;;;;;;27.90;6.30;;;10.70;99.90;;;;;;4994006;28;20043;-80
2023/10/31 01:29:10;;;;;;;25.63;5.97;;;10.80;99.90;;;;;;4994308;28;20054;-80
2023/10/31 01:31:37;;;;;;;25.13;6.43;;;10.80;99.90;;;;;;4994004;28;20483;-80
2023/10/31 01:34:03;;;;;;;22.30;5.93;;;10.80;99.90;;;;;;4993717;28;20050;-81
2023/10/31 01:36:28;;;;;;;27.17;5.93;;;10.80;99.90;;;;;;4994260;28;20744;-81
2023/10/31 01:38:54;;;;;;;25.93;6.43;;;10.80;99.90;;;;;;4994312;28;20360;-80
2023/10/31 01:41:20;;;;;;;26.47;5.93;;;10.80;99.90;;;;;;4992898;28;20046;-80
2023/10/31 01:43:45;;;;;;;27.97;6.57;;;10.80;99.90;;;;;;4992724;28;20081;-81
2023/10/31 01:46:11;;;;;;;31.07;7.83;;;10.80;99.90;;;;;;4992851;28;20053;-80
2023/10/31 01:48:37;;;;;;;26.07;7.33;;;10.80;99.90;;;;;;4993911;28;20069;-81
2023/10/31 01:51:04;;;;;;;31.17;9.27;;;10.80;99.90;;;;;;4993657;28;20046;-81
2023/10/31 01:53:33;;;;;;;38.77;9.80;;;10.80;99.90;;;;;;4993673;28;20282;-80
2023/10/31 01:56:01;;;;;;;41.67;10.03;;;10.80;99.90;;;;;;4993646;28;20292;-80
2023/10/31 01:58:35;;;;;;;34.40;9.93;;;10.80;99.90;;;;;;4993802;28;20293;-80
2023/10/31 02:01:01;;;;;;;32.17;9.63;;;10.80;99.90;;;;;;4994316;28;20278;-80
2023/10/31 02:03:30;;;;;;;44.13;11.53;;;10.80;99.90;;;;;;4993554;28;20278;-80
2023/10/31 02:05:57;;;;;;;33.67;10.43;;;10.80;99.90;;;;;;4993164;28;20290;-79
2023/10/31 02:08:24;;;;;;;43.10;12.10;;;10.70;99.90;;;;;;4997263;28;20284;-81
2023/10/31 02:10:49;;;;;;;37.87;10.80;;;10.80;99.90;;;;;;4997472;28;20773;-81
2023/10/31 02:13:17;;;;;;;30.57;10.17;;;10.80;99.90;;;;;;4995812;28;20300;-82
2023/10/31 02:15:44;;;;;;;29.20;9.10;;;10.70;99.90;;;;;;4997174;28;20105;-81
2023/10/31 02:18:09;;;;;;;30.90;8.97;;;10.70;99.90;;;;;;4997023;28;20372;-82
2023/10/31 02:20:36;;;;;;;27.97;8.20;;;10.70;99.90;;;;;;4997847;28;20365;-81
2023/10/31 02:23:02;;;;;;;22.77;6.90;;;10.70;99.90;;;;;;4997037;28;20046;-81
2023/10/31 02:25:28;;;;;;;24.57;6.93;;;10.60;99.90;;;;;;4997546;28;20665;-81
2023/10/31 02:27:54;;;;;;;31.67;7.07;;;10.60;99.90;;;;;;4996979;28;20328;-82
2023/10/31 02:30:20;;;;;;;26.93;7.60;;;10.70;99.90;;;;;;4996963;28;20050;-82
2023/10/31 02:32:45;;;;;;;24.10;7.30;;;10.70;99.90;;;;;;4996989;28;20046;-82
2023/10/31 02:35:12;;;;;;;24.33;7.30;;;10.60;99.90;;;;;;4995867;28;20509;-82
2023/10/31 02:37:37;;;;;;;23.93;7.73;;;10.60;99.90;;;;;;4996731;28;20142;-82
2023/10/31 02:40:04;;;;;;;25.83;7.47;;;10.60;99.90;;;;;;4996749;28;20372;-81
2023/10/31 02:42:30;;;;;;;21.57;5.90;;;10.60;99.90;;;;;;4995767;28;20546;-80
2023/10/31 02:44:56;;;;;;;19.47;4.63;;;10.60;99.90;;;;;;4996724;28;20372;-80
2023/10/31 02:47:22;;;;;;;18.87;4.43;;;10.70;99.90;;;;;;4996678;28;20368;-81
2023/10/31 02:49:47;;;;;;;23.93;5.43;;;10.60;99.90;;;;;;4996602;28;20375;-81
2023/10/31 02:52:13;;;;;;;25.23;5.93;;;10.60;99.90;;;;;;4996351;28;20057;-81
2023/10/31 02:54:39;;;;;;;23.60;5.27;;;10.60;99.90;;;;;;4996511;28;20558;-80
2023/10/31 02:57:04;;;;;;;19.70;4.87;;;10.60;99.90;;;;;;4996084;28;20116;-80
2023/10/31 02:59:30;;;;;;;21.27;5.73;;;10.60;99.90;;;;;;4996908;28;20137;-80
2023/10/31 03:01:57;;;;;;;23.77;5.30;;;10.60;99.90;;;;;;4996373;28;20478;-80
2023/10/31 03:04:23;;;;;;;16.47;5.60;;;10.60;99.90;;;;;;4996738;28;20065;-81
2023/10/31 03:06:49;;;;;;;27.43;6.30;;;10.60;99.90;;;;;;4996174;28;20750;-81
2023/10/31 03:09:15;;;;;;;24.63;6.33;;;10.60;99.90;;;;;;4996195;28;20284;-81
2023/10/31 03:11:41;;;;;;;21.43;5.60;;;10.60;99.90;;;;;;4996214;28;20289;-81
2023/10/31 03:14:06;;;;;;;20.40;6.00;;;10.60;99.90;;;;;;4996188;28;20046;-81
2023/10/31 03:16:32;;;;;;;37.43;7.37;;;10.60;99.90;;;;;;4996327;28;20050;-81
2023/10/31 03:18:58;;;;;;;29.67;7.67;;;10.60;99.90;;;;;;4995156;28;20043;-81
2023/10/31 03:21:24;;;;;;;24.40;6.93;;;10.60;99.90;;;;;;4995328;28;20046;-81
2023/10/31 03:23:50;;;;;;;31.10;8.00;;;10.60;99.90;;;;;;4995968;28;20335;-81
2023/10/31 03:26:17;;;;;;;28.63;7.33;;;10.60;99.90;;;;;;4995914;28;20113;-81
2023/10/31 03:28:44;;;;;;;20.57;6.97;;;10.60;99.90;;;;;;4994927;28;20758;-81
2023/10/31 03:31:10;;;;;;;26.77;7.13;;;10.60;99.90;;;;;;4995782;28;20285;-81
2023/10/31 03:33:36;;;;;;;28.00;8.03;;;10.70;99.90;;;;;;4995533;28;20289;-81
2023/10/31 03:36:02;;;;;;;24.93;7.17;;;10.60;99.90;;;;;;4995665;28;20372;-81
2023/10/31 03:38:28;;;;;;;19.30;6.60;;;10.70;99.90;;;;;;4994171;28;20045;-80
2023/10/31 03:40:54;;;;;;;22.67;6.03;;;10.70;99.90;;;;;;4995679;28;20274;-80
2023/10/31 03:43:19;;;;;;;17.93;5.73;;;10.70;99.90;;;;;;4995289;28;20046;-80
2023/10/31 03:45:48;;;;;;;18.60;4.90;;;10.70;99.90;;;;;;4996337;28;20050;-80
2023/10/31 03:48:16;;;;;;;16.37;4.40;;;10.70;99.90;;;;;;4996044;28;20096;-81
2023/10/31 03:50:42;;;;;;;20.90;5.70;;;10.70;99.90;;;;;;4995541;28;20286;-81
2023/10/31 03:53:08;;;;;;;18.60;4.80;;;10.60;99.90;;;;;;4995450;28;20332;-81
2023/10/31 03:55:34;;;;;;;15.70;3.70;;;10.70;99.90;;;;;;4995360;28;20125;-81
2023/10/31 03:57:59;;;;;;;12.17;3.10;;;10.60;99.90;;;;;;4996328;28;20043;-79
2023/10/31 04:00:25;;;;;;;15.23;3.37;;;10.70;99.90;;;;;;4995789;28;20495;-80
2023/10/31 04:02:52;;;;;;;14.00;3.37;;;10.60;99.90;;;;;;4995231;28;20046;-80
2023/10/31 04:05:18;;;;;;;13.57;3.20;;;10.60;99.90;;;;;;4994139;28;20046;-80
2023/10/31 04:07:45;;;;;;;12.47;2.83;;;10.60;99.90;;;;;;4995036;28;20300;-80
2023/10/31 04:10:11;;;;;;;15.67;2.60;;;10.60;99.90;;;;;;4994770;28;20766;-80
2023/10/31 04:12:37;;;;;;;13.53;2.30;;;10.60;99.90;;;;;;4995136;28;20286;-80
2023/10/31 04:15:03;;;;;;;12.03;2.50;;;10.60;99.90;;;;;;4994956;28;20093;-80
2023/10/31 04:17:29;;;;;;;10.07;2.17;;;10.60;99.90;;;;;;4994775;28;20054;-80
2023/10/31 04:19:55;;;;;;;16.63;2.73;;;10.60;99.90;;;;;;4994843;28;20305;-81
2023/10/31 04:22:20;;;;;;;11.30;1.93;;;10.50;99.90;;;;;;4994914;28;20050;-80
2023/10/31 04:24:46;;;;;;;10.47;2.00;;;10.60;99.90;;;;;;4993853;28;20054;-79
2023/10/31 04:27:12;;;;;;;10.47;2.17;;;10.50;99.90;;;;;;4994802;28;20053;-79
2023/10/31 04:29:38;;;;;;;13.70;1.83;;;10.50;99.90;;;;;;4977772;28;20096;-79
2023/10/31 04:32:04;;;;;;;11.80;1.87;;;10.60;99.90;;;;;;4993539;28;20053;-81
2023/10/31 04:34:29;;;;;;;9.10;1.63;;;10.50;99.90;;;;;;4995377;28;20050;-79
2023/10/31 04:36:55;;;;;;;11.43;1.90;;;10.50;99.90;;;;;;4994590;28;20626;-80
2023/10/31 04:39:21;;;;;;;6.13;1.73;;;10.50;99.90;;;;;;4993872;28;20065;-80
2023/10/31 04:41:46;;;;;;;8.07;1.87;;;10.50;99.90;;;;;;4995062;28;20076;-79
2023/10/31 04:44:12;;;;;;;8.37;1.50;;;10.50;99.90;;;;;;4994505;28;20042;-79
2023/10/31 04:46:38;;;;;;;13.57;2.00;;;10.50;99.90;;;;;;4993364;28;20478;-80
2023/10/31 04:49:04;;;;;;;12.13;2.30;;;10.50;99.90;;;;;;4993320;28;20506;-79
2023/10/31 04:51:37;;;;;;;8.97;1.87;;;10.50;99.90;;;;;;4994252;28;20053;-80
2023/10/31 04:54:03;;;;;;;7.17;1.60;;;10.40;99.90;;;;;;4994957;28;20072;-79
2023/10/31 04:56:29;;;;;;;8.57;1.67;;;10.40;99.90;;;;;;4994176;28;20278;-79
2023/10/31 04:58:54;;;;;;;8.27;1.77;;;10.40;99.90;;;;;;4994165;28;20323;-79
2023/10/31 05:01:20;;;;;;;9.63;1.60;;;10.40;99.90;;;;;;4994189;28;20046;-79
2023/10/31 05:03:46;;;;;;;7.63;1.73;;;10.40;99.90;;;;;;4977820;28;20049;-79
2023/10/31 05:06:12;;;;;;;8.97;1.80;;;10.40;99.90;;;;;;4994155;28;20050;-79
2023/10/31 05:08:37;;;;;;;7.30;1.90;;;10.40;99.90;;;;;;4992871;28;20045;-78
2023/10/31 05:11:03;;;;;;;14.13;1.90;;;10.40;99.90;;;;;;4976824;28;20050;-79
2023/10/31 05:13:29;;;;;;;9.13;2.63;;;10.40;99.90;;;;;;4976771;28;20054;-80
2023/10/31 05:15:55;;;;;;;8.07;2.10;;;10.40;99.90;;;;;;4993425;28;20105;-79
2023/10/31 05:18:20;;;;;;;9.20;2.27;;;10.40;99.90;;;;;;4994732;28;20046;-79
2023/10/31 05:20:47;;;;;;;7.53;2.83;;;10.40;99.90;;;;;;4994859;28;20529;-79
2023/10/31 05:23:13;;;;;;;7.13;2.60;;;10.40;99.90;;;;;;4994041;28;20054;-79
2023/10/31 05:25:38;;;;;;;15.27;2.73;;;10.50;99.90;;;;;;4993044;28;20375;-80
2023/10/31 05:28:04;;;;;;;8.87;2.70;;;10.40;99.90;;;;;;4994089;28;20313;-80
2023/10/31 05:30:31;;;;;;;14.57;3.30;;;10.50;99.90;;;;;;4993862;28;20478;-79
2023/10/31 05:32:56;;;;;;;13.53;2.77;;;10.50;99.90;;;;;;4993866;28;20281;-79
2023/10/31 05:35:22;;;;;;;9.80;3.03;;;10.50;99.90;;;;;;4992774;28;20356;-79
2023/10/31 05:37:48;;;;;;;12.13;3.10;;;10.50;99.90;;;;;;4993822;28;20062;-78
2023/10/31 05:40:15;;;;;;;9.70;2.63;;;10.50;99.90;;;;;;4994159;28;20058;-79
2023/10/31 05:42:41;;;;;;;13.57;3.03;;;10.50;99.90;;;;;;4996858;28;20054;-79
2023/10/31 05:45:06;;;;;;;15.07;2.70;;;10.50;99.90;;;;;;4997021;28;20296;-80
2023/10/31 05:47:35;;;;;;;7.80;2.30;;;10.50;99.90;;;;;;4997925;28;20506;-80
2023/10/31 05:50:01;;;;;;;9.80;2.70;;;10.50;99.90;;;;;;4998198;28;20490;-80
2023/10/31 05:52:30;;;;;;;9.53;2.70;;;10.50;99.90;;;;;;4997546;28;20284;-81
2023/10/31 05:54:56;;;;;;;9.80;2.70;;;10.40;99.90;;;;;;4996570;28;20478;-80
2023/10/31 05:57:22;;;;;;;11.40;2.70;;;10.50;99.90;;;;;;4997580;28;20361;-80
2023/10/31 05:59:47;;;;;;;7.97;2.70;;;10.50;99.90;;;;;;4996176;28;20701;-80
2023/10/31 06:02:16;;;;;;;10.43;3.30;;;10.50;99.90;;;;;;4997093;28;20577;-79
2023/10/31 06:04:42;;;;;;;10.63;3.37;;;10.50;99.90;;;;;;4980421;28;20069;-80
2023/10/31 06:07:07;;;;;;;8.30;3.43;;;10.50;99.90;;;;;;4997352;28;20281;-80
2023/10/31 06:09:33;;;;;;;13.67;3.60;;;10.50;99.90;;;;;;4997792;28;20082;-80
2023/10/31 06:12:00;;;;;;;11.80;3.23;;;10.50;99.90;;;;;;4980824;28;20053;-80
2023/10/31 06:14:26;;;;;;;12.67;3.67;;;10.50;99.90;;;;;;4997327;28;20102;-80
2023/10/31 06:16:52;;;;;;;9.10;3.17;;;10.50;99.90;;;;;;4996183;28;20369;-80
2023/10/31 06:19:18;;;;;;;10.73;3.70;;;10.50;99.90;;;;;;4997073;28;20507;-80
2023/10/31 06:21:43;;;;;;;11.10;4.10;;;10.50;99.90;;;;;;4996108;28;20289;-80
2023/10/31 06:24:10;;;;;;;10.70;4.00;;;10.50;99.90;;;;;;4997039;28;20503;-80
2023/10/31 06:26:35;;;;;;;14.43;4.27;;;10.50;99.90;;;;;;4997802;28;20434;-80
2023/10/31 06:29:01;;;;;;;11.30;3.87;;;10.50;99.90;;;;;;4996997;28;20324;-80
2023/10/31 06:31:27;;;;;;;14.20;4.93;;;10.60;99.90;;;;;;4997713;28;20086;-81
2023/10/31 06:33:52;;;;;;;15.00;5.10;;;10.60;99.90;;;;;;4997382;28;20526;-80
2023/10/31 06:36:18;;;;;;;12.20;4.83;;;10.50;99.90;;;;;;4996564;28;20054;-80
2023/10/31 06:38:44;;;;;;;12.37;3.97;;;10.50;99.90;;;;;;4996433;28;20061;-80
2023/10/31 06:41:10;;;;;;;10.43;3.70;;;10.50;99.90;;;;;;4996669;28;20057;-81
2023/10/31 06:43:36;;;;;;;14.03;4.13;;;10.50;99.90;;;;;;4996347;28;20053;-81
2023/10/31 06:46:04;;;;;;;16.07;4.47;;;10.50;99.90;;;;;;4979508;28;20133;-81
2023/10/31 06:48:29;;;;;;;12.07;4.17;;;10.50;99.90;;;;;;4996586;28;20050;-81
2023/10/31 06:50:55;;;;;;;13.27;4.00;;;10.50;99.90;;;;;;4995854;28;20293;-81
2023/10/31 06:53:21;;;;;;;16.00;4.27;;;10.50;99.90;;;;;;4995253;28;20482;-81
2023/10/31 06:55:47;;;;;;;13.10;3.43;;;10.50;99.90;;;;;;4996750;28;20050;-81
2023/10/31 06:58:12;;;;;;;10.20;3.40;;;10.50;99.90;;;;;;4979099;28;20038;-81
2023/10/31 07:00:38;;;;;;;16.23;3.50;;;10.40;99.90;;;;;;4996402;28;20450;-81
2023/10/31 07:03:08;;;;;;;11.43;3.07;;;10.50;99.90;;;;;;4996582;28;20052;-80
2023/10/31 07:05:35;;;;;;;10.03;2.73;;;10.40;99.90;;;;;;4996747;28;20148;-80
2023/10/31 07:08:00;;;;;;;10.53;2.43;;;10.50;99.90;;;;;;4996628;28;20285;-80
2023/10/31 07:10:26;;;;;;;12.37;2.63;;;10.50;99.90;;;;;;4996084;28;20828;-81
2023/10/31 07:12:52;;;;;;;9.87;2.50;;;10.50;99.90;;;;;;4995081;28;20121;-81
2023/10/31 07:15:17;;;;;;;11.77;2.80;;;10.50;99.90;;;;;;4995136;28;20100;-81
2023/10/31 07:17:43;;;;;;;8.23;2.40;;;10.50;99.90;;;;;;4994963;28;20042;-81
2023/10/31 07:20:09;;;;;;;12.47;2.63;;;10.40;99.90;;;;;;4996434;28;20105;-81
2023/10/31 07:22:35;;;;;;;10.57;2.10;;;10.50;99.90;;;;;;4994968;28;20057;-80
2023/10/31 07:25:03;;;;;;;13.23;2.20;;;10.50;99.90;;;;;;4995876;28;20081;-81
2023/10/31 07:27:29;;;;;;;9.53;1.70;;;10.50;99.90;;;;;;4995824;28;20288;-80
2023/10/31 07:29:55;;;;;;;10.90;1.90;;;10.50;99.90;;;;;;4995764;28;20296;-81
2023/10/31 07:32:21;;;;;;;10.77;2.17;;;10.50;99.90;;;;;;4995752;28;20817;-81
2023/10/31 07:34:46;;;;;;;7.93;1.80;;;10.50;99.90;;;;;;4995656;28;20050;-81
2023/10/31 07:37:12;;;;;;;10.23;1.90;;;10.60;99.90;;;;;;4995982;28;20054;-82
2023/10/31 07:39:38;;;;;;;9.57;1.70;;;10.60;99.90;;;;;;4996128;28;20533;-81
2023/10/31 07:42:04;;;;;;;9.83;1.70;;;10.60;99.90;;;;;;4995480;28;20058;-81
2023/10/31 07:44:30;;;;;;;5.43;0.90;;;10.60;99.90;;;;;;4995571;28;20053;-81
2023/10/31 07:46:56;;;;;;;6.37;1.07;;;10.70;99.90;;;;;;4995932;28;20730;-81
2023/10/31 07:49:21;;;;;;;5.80;1.60;;;10.70;99.90;;;;;;4995638;28;20041;-82
2023/10/31 07:51:48;;;;;;;8.80;1.40;;;10.70;99.90;;;;;;4995291;28;20050;-81
2023/10/31 07:54:15;;;;;;;6.73;1.40;;;10.70;99.90;;;;;;4995289;28;20129;-82
2023/10/31 07:56:41;;;;;;;3.97;1.23;;;10.70;99.90;;;;;;4995241;28;20293;-81
2023/10/31 07:59:07;;;;;;;7.97;1.17;;;10.70;99.90;;;;;;4994027;28;20308;-82
2023/10/31 08:01:34;;;;;;;6.03;1.20;;;10.70;99.90;;;;;;4994221;28;20054;-81
2023/10/31 08:04:00;;;;;;;6.83;1.20;;;10.70;99.90;;;;;;4994776;28;20081;-80
2023/10/31 08:06:26;;;;;;;7.17;1.17;;;10.70;99.90;;;;;;4994151;28;20328;-79
2023/10/31 08:08:52;;;;;;;5.60;1.30;;;10.70;99.90;;;;;;4995350;28;20038;-79
2023/10/31 08:11:18;;;;;;;4.63;1.07;;;10.80;99.90;;;;;;4995568;28;20051;-78
2023/10/31 08:13:44;;;;;;;6.47;1.20;;;10.70;99.90;;;;;;4995402;28;20817;-79
2023/10/31 08:16:09;;;;;;;6.90;1.40;;;10.80;99.90;;;;;;4978548;28;20120;-78
2023/10/31 08:18:35;;;;;;;8.43;1.77;;;10.80;99.90;;;;;;4995048;28;20053;-77
2023/10/31 08:21:01;;;;;;;7.10;1.37;;;10.80;99.90;;;;;;4994730;28;20478;-79
2023/10/31 08:23:29;;;;;;;6.30;1.70;;;10.80;99.90;;;;;;4995258;28;20046;-80
2023/10/31 08:25:54;;;;;;;6.80;2.17;;;10.80;99.90;;;;;;4994847;28;20281;-75
2023/10/31 08:28:20;;;;;;;7.43;2.20;;;10.90;99.90;;;;;;4994703;28;20288;-78
2023/10/31 08:30:46;;;;;;;7.53;1.20;;;10.90;99.90;;;;;;4977492;28;20046;-80
2023/10/31 08:33:12;;;;;;;3.67;0.80;;;10.90;99.90;;;;;;4994636;28;20442;-77
2023/10/31 08:35:38;;;;;;;7.00;1.20;;;10.90;99.90;;;;;;4995350;28;20289;-78
2023/10/31 08:38:03;;;;;;;6.30;1.53;;;10.90;99.90;;;;;;4993612;28;20046;-77
2023/10/31 08:40:29;;;;;;;6.77;1.30;;;10.90;99.90;;;;;;4994338;28;20054;-77
2023/10/31 08:42:55;;;;;;;7.57;1.40;;;10.90;99.90;;;;;;4994507;28;20054;-77
2023/10/31 08:45:21;;;;;;;5.00;1.20;;;10.90;99.90;;;;;;4994427;28;20060;-77
2023/10/31 08:47:47;;;;;;;3.53;0.90;;;10.90;99.90;;;;;;4994430;28;20098;-77
2023/10/31 08:50:13;;;;;;;6.00;1.40;;;10.90;99.90;;;;;;4994099;28;20739;-77
2023/10/31 08:52:39;;;;;;;5.37;1.00;;;10.90;99.90;;;;;;4994173;28;20054;-77
2023/10/31 08:55:06;;;;;;;6.20;1.20;;;10.90;99.90;;;;;;4994323;28;20282;-77
2023/10/31 08:57:33;;;;;;;11.03;1.27;;;10.90;99.90;;;;;;4994238;28;20284;-77
2023/10/31 08:59:59;;;;;;;9.57;1.50;;;11.00;99.90;;;;;;4993897;28;20297;-78
2023/10/31 09:02:25;;;;;;;11.17;1.50;;;11.00;99.90;;;;;;4976850;28;20284;-77
2023/10/31 09:04:51;;;;;;;8.53;1.27;;;11.00;99.90;;;;;;4994658;28;20277;-76
2023/10/31 09:07:16;;;;;;;19.00;1.83;;;11.10;99.90;;;;;;4993217;28;20054;-76
2023/10/31 09:09:42;;;;;;;14.53;1.70;;;11.10;99.90;;;;;;4977765;28;20463;-76
2023/10/31 09:12:08;;;;;;;11.47;1.63;;;11.10;99.90;;;;;;4994569;28;20057;-76
2023/10/31 09:14:35;;;;;;;11.53;2.03;;;11.10;99.90;;;;;;4993910;28;20047;-76
2023/10/31 09:17:01;;;;;;;12.33;1.80;;;11.20;99.90;;;;;;4993391;28;20400;-77
2023/10/31 09:19:28;;;;;;;13.80;1.70;;;11.20;99.90;;;;;;4993807;28;20309;-77
2023/10/31 09:21:54;;;;;;;14.33;1.30;;;11.30;99.90;;;;;;4993035;28;20363;-76
2023/10/31 09:24:20;;;;;;;10.63;1.70;;;11.20;99.90;;;;;;4994519;28;20286;-76
2023/10/31 09:26:46;;;;;;;7.70;1.33;;;11.20;99.90;;;;;;4993725;28;20284;-75
2023/10/31 09:29:11;;;;;;;5.93;1.00;;;11.20;99.90;;;;;;4994031;28;20046;-75
2023/10/31 09:31:37;;;;;;;7.40;1.10;;;11.20;99.90;;;;;;4993738;28;20161;-75
2023/10/31 09:34:03;;;;;;;7.33;1.20;;;11.30;99.90;;;;;;4994026;28;20053;-75
2023/10/31 09:36:32;;;;;;;5.40;1.10;;;11.30;99.90;;;;;;4994512;28;20058;-75
2023/10/31 09:38:58;;;;;;;9.73;1.47;;;11.20;99.90;;;;;;4993783;28;20319;-76
2023/10/31 09:41:23;;;;;;;6.33;0.97;;;11.20;99.90;;;;;;4992670;28;20293;-76
2023/10/31 09:43:50;;;;;;;5.27;1.17;;;11.20;99.90;;;;;;4993878;28;20158;-75
2023/10/31 09:46:16;;;;;;;9.77;1.00;;;11.30;99.90;;;;;;4994943;28;20363;-75
2023/10/31 09:48:43;;;;;;;11.40;1.53;;;11.30;99.90;;;;;;4993840;28;20285;-76
2023/10/31 09:51:11;;;;;;;7.80;1.27;;;11.30;99.90;;;;;;4994371;28;20308;-77
2023/10/31 09:53:41;;;;;;;11.23;1.40;;;11.30;99.90;;;;;;4994662;28;20365;-76
2023/10/31 09:56:07;;;;;;;8.20;1.37;;;11.40;99.90;;;;;;4994592;28;20324;-78
2023/10/31 09:58:33;;;;;;;8.07;1.30;;;11.40;99.90;;;;;;4993754;28;20301;-76
2023/10/31 10:00:59;;;;;;;7.47;1.50;;;11.40;99.90;;;;;;4993741;28;20757;-77
2023/10/31 10:03:26;;;;;;;9.00;1.60;;;11.50;99.90;;;;;;4994285;28;20293;-76
2023/10/31 10:05:52;;;;;;;10.83;1.63;;;11.50;99.90;;;;;;4993786;28;20093;-75
2023/10/31 10:08:19;;;;;;;8.63;1.77;;;11.50;99.90;;;;;;4993758;28;20278;-77
2023/10/31 10:10:45;;;;;;;10.23;1.50;;;11.40;99.90;;;;;;4993738;28;20281;-74
2023/10/31 10:13:12;;;;;;;10.37;2.00;;;11.40;99.90;;;;;;4993687;28;20286;-77
2023/10/31 10:15:45;;;;;;;13.20;1.67;;;11.40;99.90;;;;;;4993562;28;20051;-76
2023/10/31 10:18:27;;;;;;;8.40;1.23;;;11.40;99.90;;;;;;4993786;28;20766;-76
2023/10/31 10:21:01;;;;;;;10.53;1.60;;;11.40;99.90;;;;;;4993383;28;20897;-76
2023/10/31 10:23:28;;;;;;;10.67;2.13;;;11.40;99.90;;;;;;4993391;28;20823;-76
2023/10/31 10:25:56;;;;;;;8.00;2.63;;;11.40;99.90;;;;;;4993335;28;20781;-76
2023/10/31 10:28:22;;;;;;;13.73;1.63;;;11.40;99.90;;;;;;4995785;28;20284;-75
2023/10/31 10:30:52;;;;;;;10.23;2.30;;;11.30;99.90;;;;;;4997601;28;20282;-76
2023/10/31 10:33:18;;;;;;;11.50;1.83;;;11.20;99.90;;;;;;4979805;28;20034;-83
2023/10/31 10:35:44;;;;;;;11.87;1.80;;;11.20;99.90;;;;;;4996964;28;20377;-73
2023/10/31 10:38:17;;;;;;;8.40;1.70;;;11.30;99.90;;;;;;4996812;28;20341;-73
2023/10/31 10:40:45;;;;;;;9.97;1.80;;;11.30;99.90;;;;;;4997678;28;20662;-76
2023/10/31 10:43:36;;;;;;;10.13;1.70;;;11.30;99.90;;;;;;4997571;28;20293;-77
2023/10/31 10:46:03;;;;;;;14.03;2.37;;;11.30;99.90;;;;;;4996572;28;20321;-79
2023/10/31 10:48:38;;;;;;;12.03;2.10;;;11.40;99.90;;;;;;4996551;28;20288;-77
2023/10/31 10:51:17;;;;;;;8.98;1.65;;;11.50;99.90;;;;;;4995551;28;20284;-77
2023/10/31 10:54:04;;;;;;;13.23;2.10;;;11.40;99.90;;;;;;4997234;28;20066;-77
2023/10/31 10:56:57;;;;;;;15.70;1.53;;;11.50;99.90;;;;;;4996879;28;20669;-76
2023/10/31 10:59:38;;;;;;;12.27;2.10;;;11.50;99.90;;;;;;4991770;28;20313;-76
2023/10/31 11:02:05;;;;;;;8.80;1.43;;;11.50;99.90;;;;;;4996251;28;20745;-77
2023/10/31 11:04:33;;;;;;;5.03;1.30;;;11.40;99.90;;;;;;4996676;28;20352;-76
2023/10/31 11:06:59;;;;;;;7.30;1.47;;;11.20;99.90;;;;;;4997131;28;20285;-76
2023/10/31 11:09:26;;;;;;;16.10;1.87;;;11.20;99.90;;;;;;4997081;28;20281;-75
2023/10/31 11:11:53;;;;;;;14.30;2.60;;;11.20;99.90;;;;;;4996288;28;20312;-75
2023/10/31 11:14:19;;;;;;;10.20;1.67;;;11.20;99.90;;;;;;4996733;28;20630;-76
2023/10/31 11:16:52;;;;;;;14.07;1.90;;;11.30;99.90;;;;;;4996165;28;20278;-76
2023/10/31 11:19:18;;;;;;;9.57;2.13;;;11.30;99.90;;;;;;4995825;28;20305;-76
2023/10/31 11:22:01;;;;;;;9.83;1.60;;;11.30;99.90;;;;;;4994616;28;20282;-76
2023/10/31 11:24:28;;;;;;;13.93;2.20;;;11.40;99.90;;;;;;4996048;28;20277;-76
2023/10/31 11:27:00;;;;;;;19.07;1.97;;;11.50;99.90;;;;;;4996286;28;20375;-76
2023/10/31 11:29:25;;;;;;;16.53;2.30;;;11.50;99.90;;;;;;4995913;28;20273;-76
2023/10/31 11:31:53;;;;;;;14.00;1.87;;;11.60;99.90;;;;;;4994961;28;20432;-77
2023/10/31 11:34:20;;;;;;;9.63;1.70;;;11.50;99.90;;;;;;4995770;28;20561;-77
2023/10/31 11:36:48;;;;;;;14.10;2.63;;;11.50;99.90;;;;;;4995698;28;20285;-77
2023/10/31 11:39:18;;;;;;;13.40;2.47;;;11.40;99.90;;;;;;4994578;28;20316;-76
2023/10/31 11:41:50;;;;;;;13.07;1.97;;;11.30;99.90;;;;;;4995462;28;20329;-76
2023/10/31 11:44:17;;;;;;;13.50;1.47;;;11.20;99.90;;;;;;4995206;28;20336;-77
2023/10/31 11:46:43;;;;;;;10.40;1.67;;;11.20;99.90;;;;;;4995539;28;20321;-77
2023/10/31 11:49:09;;;;;;;12.17;1.50;;;11.20;99.90;;;;;;4995747;28;20681;-78
2023/10/31 11:51:35;;;;;;;10.73;1.43;;;11.20;99.90;;;;;;4994198;28;20293;-77
2023/10/31 11:54:08;;;;;;;8.40;1.60;;;11.20;99.90;;;;;;4995410;28;20053;-77
2023/10/31 11:56:34;;;;;;;8.73;1.70;;;11.20;99.90;;;;;;4995435;28;20053;-77
2023/10/31 11:59:02;;;;;;;11.87;1.63;;;11.30;99.90;;;;;;4993834;28;20301;-77
2023/10/31 12:01:28;;;;;;;8.97;1.40;;;11.30;99.90;;;;;;4995265;28;20081;-77
2023/10/31 12:03:54;;;;;;;13.13;1.53;;;11.30;99.90;;;;;;4995266;28;20792;-77
2023/10/31 12:06:21;;;;;;;12.13;1.50;;;11.30;99.90;;;;;;4995194;28;20495;-77
2023/10/31 12:08:48;;;;;;;11.00;1.60;;;11.30;99.90;;;;;;4994910;28;20506;-78
2023/10/31 12:11:16;;;;;;;9.80;1.93;;;11.30;99.90;;;;;;4995621;28;20412;-78
2023/10/31 12:14:00;;;;;;;13.53;2.10;;;11.30;99.90;;;;;;4994116;28;20408;-76
2023/10/31 12:16:30;;;;;;;17.47;1.70;;;11.40;99.90;;;;;;4995074;28;20285;-77
2023/10/31 12:18:57;;;;;;;13.57;1.83;;;11.40;99.90;;;;;;4995298;28;20300;-76
2023/10/31 12:21:37;;;;;;;19.70;2.20;;;11.50;99.90;;;;;;4994978;28;20285;-76
2023/10/31 12:24:07;;;;;;;11.97;1.67;;;11.40;99.90;;;;;;4995461;28;20360;-75
2023/10/31 12:26:34;;;;;;;10.00;1.60;;;11.50;99.90;;;;;;4994569;28;20773;-76
2023/10/31 12:29:17;;;;;;;13.50;1.97;;;11.50;99.90;;;;;;4994769;28;20278;-76
2023/10/31 12:31:50;;;;;;;13.70;2.00;;;11.60;99.90;;;;;;4994429;28;20364;-76
2023/10/31 12:34:17;;;;;;;9.80;1.87;;;11.60;99.90;;;;;;4994736;28;20336;-77
2023/10/31 12:36:44;;;;;;;9.57;1.50;;;11.60;99.90;;;;;;4994736;28;20284;-78
2023/10/31 12:39:12;;;;;;;8.23;1.47;;;11.70;99.90;;;;;;4994510;28;20316;-74